sensor_id;sensor_type;location;lat;lon;timestamp;temperature;humidity
70830;SHT30;58451;51.550;7.208;2022-09-12T04:52:11;10.86;83.89
70830;SHT30;58451;51.550;7.208;2022-09-12T04:54:47;10.88;83.98
70830;SHT30;58451;51.550;7.208;2022-09-12T04:57:16;10.91;84.35
70830;SHT30;58451;51.550;7.208;2022-09-12T04:59:45;10.93;84.18
70830;SHT30;58451;51.550;7.208;2022-09-12T05:06:11;10.97;84.08
70830;SHT30;58451;51.550;7.208;2022-09-12T05:08:46;11.00;83.89
70830;SHT30;58451;51.550;7.208;2022-09-12T05:11:16;11.03;83.84
70830;SHT30;58451;51.550;7.208;2022-09-12T05:13:55;11.07;83.80
70830;SHT30;58451;51.550;7.208;2022-09-12T05:16:26;11.11;83.80
70830;SHT30;58451;51.550;7.208;2022-09-12T05:18:57;11.15;83.79
70830;SHT30;58451;51.550;7.208;2022-09-12T05:21:26;11.21;83.80
70830;SHT30;58451;51.550;7.208;2022-09-12T05:24:08;11.27;83.81
70830;SHT30;58451;51.550;7.208;2022-09-12T05:26:38;11.34;83.81
70830;SHT30;58451;51.550;7.208;2022-09-12T05:29:42;11.44;83.83
70830;SHT30;58451;51.550;7.208;2022-09-12T05:32:19;11.51;83.78
70830;SHT30;58451;51.550;7.208;2022-09-12T05:34:46;11.60;83.70
70830;SHT30;58451;51.550;7.208;2022-09-12T05:37:15;11.69;83.68
70830;SHT30;58451;51.550;7.208;2022-09-12T05:39:46;11.77;83.64
70830;SHT30;58451;51.550;7.208;2022-09-12T05:42:14;11.87;83.61
70830;SHT30;58451;51.550;7.208;2022-09-12T05:44:40;11.97;83.54
70830;SHT30;58451;51.550;7.208;2022-09-12T05:47:07;12.08;83.51
70830;SHT30;58451;51.550;7.208;2022-09-12T05:49:37;12.20;83.45
70830;SHT30;58451;51.550;7.208;2022-09-12T05:52:05;12.33;83.43
70830;SHT30;58451;51.550;7.208;2022-09-12T06:01:30;12.89;83.12
70830;SHT30;58451;51.550;7.208;2022-09-12T06:04:28;13.07;83.05
70830;SHT30;58451;51.550;7.208;2022-09-12T06:07:50;13.27;82.92
70830;SHT30;58451;51.550;7.208;2022-09-12T06:10:16;13.43;82.85
70830;SHT30;58451;51.550;7.208;2022-09-12T06:12:44;13.62;82.79
70830;SHT30;58451;51.550;7.208;2022-09-12T06:15:11;13.83;82.70
70830;SHT30;58451;51.550;7.208;2022-09-12T06:17:39;14.00;82.54
70830;SHT30;58451;51.550;7.208;2022-09-12T06:20:08;14.19;82.45
70830;SHT30;58451;51.550;7.208;2022-09-12T06:22:37;14.40;82.33
70830;SHT30;58451;51.550;7.208;2022-09-12T06:28:06;14.80;82.07
70830;SHT30;58451;51.550;7.208;2022-09-12T06:33:52;15.12;81.79
70830;SHT30;58451;51.550;7.208;2022-09-12T06:36:22;15.16;81.76
70830;SHT30;58451;51.550;7.208;2022-09-12T06:38:54;15.26;81.70
70830;SHT30;58451;51.550;7.208;2022-09-12T06:41:23;15.35;81.57
70830;SHT30;58451;51.550;7.208;2022-09-12T06:43:51;15.44;81.41
70830;SHT30;58451;51.550;7.208;2022-09-12T06:46:59;15.58;81.14
70830;SHT30;58451;51.550;7.208;2022-09-12T06:49:30;15.66;81.02
70830;SHT30;58451;51.550;7.208;2022-09-12T06:52:02;15.76;80.91
70830;SHT30;58451;51.550;7.208;2022-09-12T06:54:29;15.86;80.79
70830;SHT30;58451;51.550;7.208;2022-09-12T06:56:56;15.99;80.69
70830;SHT30;58451;51.550;7.208;2022-09-12T06:59:44;16.17;80.45
70830;SHT30;58451;51.550;7.208;2022-09-12T07:02:15;16.31;80.21
70830;SHT30;58451;51.550;7.208;2022-09-12T07:05:01;16.49;79.96
70830;SHT30;58451;51.550;7.208;2022-09-12T07:07:38;16.65;79.76
70830;SHT30;58451;51.550;7.208;2022-09-12T07:10:06;16.82;79.63
70830;SHT30;58451;51.550;7.208;2022-09-12T07:12:36;16.99;79.43
70830;SHT30;58451;51.550;7.208;2022-09-12T07:15:06;17.15;79.22
70830;SHT30;58451;51.550;7.208;2022-09-12T07:17:34;17.31;79.01
70830;SHT30;58451;51.550;7.208;2022-09-12T07:20:01;17.49;78.79
70830;SHT30;58451;51.550;7.208;2022-09-12T07:22:29;17.65;78.57
70830;SHT30;58451;51.550;7.208;2022-09-12T07:24:55;17.76;78.41
70830;SHT30;58451;51.550;7.208;2022-09-12T07:30:52;17.97;78.08
70830;SHT30;58451;51.550;7.208;2022-09-12T07:33:21;18.02;77.82
70830;SHT30;58451;51.550;7.208;2022-09-12T07:36:02;18.11;77.73
70830;SHT30;58451;51.550;7.208;2022-09-12T07:38:34;18.21;77.57
70830;SHT30;58451;51.550;7.208;2022-09-12T07:41:15;18.34;77.45
70830;SHT30;58451;51.550;7.208;2022-09-12T07:43:46;18.50;77.29
70830;SHT30;58451;51.550;7.208;2022-09-12T07:46:17;18.68;77.02
70830;SHT30;58451;51.550;7.208;2022-09-12T18:33:22;20.98;50.10
70830;SHT30;58451;51.550;7.208;2022-09-12T18:35:49;20.88;49.12
70830;SHT30;58451;51.550;7.208;2022-09-12T18:38:16;20.78;51.07
70830;SHT30;58451;51.550;7.208;2022-09-12T18:40:43;20.67;51.68
70830;SHT30;58451;51.550;7.208;2022-09-12T18:43:10;20.58;52.61
70830;SHT30;58451;51.550;7.208;2022-09-12T18:45:37;20.47;52.15
70830;SHT30;58451;51.550;7.208;2022-09-12T18:48:03;20.39;51.90
70830;SHT30;58451;51.550;7.208;2022-09-12T18:50:31;20.31;52.24
70830;SHT30;58451;51.550;7.208;2022-09-12T18:52:59;20.25;52.26
70830;SHT30;58451;51.550;7.208;2022-09-12T18:55:25;20.19;52.62
70830;SHT30;58451;51.550;7.208;2022-09-12T18:57:53;20.12;53.09
70830;SHT30;58451;51.550;7.208;2022-09-12T19:00:20;20.03;54.22
70830;SHT30;58451;51.550;7.208;2022-09-12T19:02:47;19.97;54.04
70830;SHT30;58451;51.550;7.208;2022-09-12T19:05:14;19.91;55.48
70830;SHT30;58451;51.550;7.208;2022-09-12T19:07:41;19.86;55.40
70830;SHT30;58451;51.550;7.208;2022-09-12T19:10:08;19.81;56.19
70830;SHT30;58451;51.550;7.208;2022-09-12T19:12:35;19.77;56.43
70830;SHT30;58451;51.550;7.208;2022-09-12T19:15:01;19.73;56.54
70830;SHT30;58451;51.550;7.208;2022-09-12T19:17:29;19.69;56.67
70830;SHT30;58451;51.550;7.208;2022-09-12T19:19:56;19.66;56.36
70830;SHT30;58451;51.550;7.208;2022-09-12T19:22:22;19.62;56.64
70830;SHT30;58451;51.550;7.208;2022-09-12T19:24:49;19.59;56.74
70830;SHT30;58451;51.550;7.208;2022-09-12T19:27:16;19.56;57.03
70830;SHT30;58451;51.550;7.208;2022-09-12T19:29:43;19.51;57.82
70830;SHT30;58451;51.550;7.208;2022-09-12T19:32:09;19.48;57.87
70830;SHT30;58451;51.550;7.208;2022-09-12T19:34:36;19.44;57.85
70830;SHT30;58451;51.550;7.208;2022-09-12T19:37:03;19.40;58.21
70830;SHT30;58451;51.550;7.208;2022-09-12T19:39:30;19.36;58.26
70830;SHT30;58451;51.550;7.208;2022-09-12T19:41:56;19.32;58.79
70830;SHT30;58451;51.550;7.208;2022-09-12T19:44:23;19.27;59.54
70830;SHT30;58451;51.550;7.208;2022-09-12T19:46:52;19.20;59.19
70830;SHT30;58451;51.550;7.208;2022-09-12T19:49:19;19.14;59.28
70830;SHT30;58451;51.550;7.208;2022-09-12T19:51:46;19.08;60.45
70830;SHT30;58451;51.550;7.208;2022-09-12T19:54:13;19.02;60.22
70830;SHT30;58451;51.550;7.208;2022-09-12T19:56:40;18.96;60.31
70830;SHT30;58451;51.550;7.208;2022-09-12T19:59:06;18.90;60.34
70830;SHT30;58451;51.550;7.208;2022-09-12T20:01:34;18.86;60.84
70830;SHT30;58451;51.550;7.208;2022-09-12T20:04:02;18.80;60.98
70830;SHT30;58451;51.550;7.208;2022-09-12T20:06:29;18.75;61.03
70830;SHT30;58451;51.550;7.208;2022-09-12T20:08:56;18.70;61.29
70830;SHT30;58451;51.550;7.208;2022-09-12T20:11:23;18.63;61.37
70830;SHT30;58451;51.550;7.208;2022-09-12T20:13:51;18.59;61.55
70830;SHT30;58451;51.550;7.208;2022-09-12T20:16:19;18.55;61.81
70830;SHT30;58451;51.550;7.208;2022-09-12T20:18:54;18.50;61.92
70830;SHT30;58451;51.550;7.208;2022-09-12T20:21:25;18.44;62.13
70830;SHT30;58451;51.550;7.208;2022-09-12T20:26:33;18.34;62.47
70830;SHT30;58451;51.550;7.208;2022-09-12T20:29:00;18.30;62.61
70830;SHT30;58451;51.550;7.208;2022-09-12T20:31:28;18.26;62.89
70830;SHT30;58451;51.550;7.208;2022-09-12T20:33:56;18.21;63.27
70830;SHT30;58451;51.550;7.208;2022-09-12T20:36:24;18.18;63.55
70830;SHT30;58451;51.550;7.208;2022-09-12T20:38:52;18.14;63.77
70830;SHT30;58451;51.550;7.208;2022-09-12T20:41:23;18.10;63.83
70830;SHT30;58451;51.550;7.208;2022-09-12T20:43:52;18.06;64.12
70830;SHT30;58451;51.550;7.208;2022-09-12T20:46:21;18.02;64.38
70830;SHT30;58451;51.550;7.208;2022-09-12T20:48:50;17.99;64.55
70830;SHT30;58451;51.550;7.208;2022-09-12T20:51:19;17.96;64.79
70830;SHT30;58451;51.550;7.208;2022-09-12T20:53:47;17.91;64.83
70830;SHT30;58451;51.550;7.208;2022-09-12T20:56:20;17.88;64.97
70830;SHT30;58451;51.550;7.208;2022-09-12T20:58:48;17.84;65.16
70830;SHT30;58451;51.550;7.208;2022-09-12T21:01:15;17.81;65.37
70830;SHT30;58451;51.550;7.208;2022-09-12T21:03:43;17.76;65.49
70830;SHT30;58451;51.550;7.208;2022-09-12T21:06:11;17.73;65.61
70830;SHT30;58451;51.550;7.208;2022-09-12T21:08:39;17.72;65.68
70830;SHT30;58451;51.550;7.208;2022-09-12T21:11:06;17.70;65.70
70830;SHT30;58451;51.550;7.208;2022-09-12T21:13:33;17.70;65.80
70830;SHT30;58451;51.550;7.208;2022-09-12T21:16:05;17.71;65.39
70830;SHT30;58451;51.550;7.208;2022-09-12T21:18:36;17.73;65.05
70830;SHT30;58451;51.550;7.208;2022-09-12T21:21:04;17.77;64.65
70830;SHT30;58451;51.550;7.208;2022-09-12T21:23:31;17.86;64.45
70830;SHT30;58451;51.550;7.208;2022-09-12T21:26:00;17.95;63.94
70830;SHT30;58451;51.550;7.208;2022-09-12T21:28:27;18.00;63.62
70830;SHT30;58451;51.550;7.208;2022-09-12T21:30:54;18.05;63.35
70830;SHT30;58451;51.550;7.208;2022-09-12T21:33:21;18.12;63.07
70830;SHT30;58451;51.550;7.208;2022-09-12T21:35:48;18.17;62.85
70830;SHT30;58451;51.550;7.208;2022-09-12T21:38:16;18.19;62.66
70830;SHT30;58451;51.550;7.208;2022-09-12T21:40:45;18.22;62.53
70830;SHT30;58451;51.550;7.208;2022-09-12T21:43:13;18.24;62.34
70830;SHT30;58451;51.550;7.208;2022-09-12T21:45:40;18.26;62.20
70830;SHT30;58451;51.550;7.208;2022-09-12T21:48:07;18.30;62.07
70830;SHT30;58451;51.550;7.208;2022-09-12T21:50:34;18.31;61.98
70830;SHT30;58451;51.550;7.208;2022-09-12T21:53:00;18.32;61.82
70830;SHT30;58451;51.550;7.208;2022-09-12T21:55:27;18.32;61.75
70830;SHT30;58451;51.550;7.208;2022-09-12T21:57:54;18.33;61.68
70830;SHT30;58451;51.550;7.208;2022-09-12T22:00:21;18.35;61.60
70830;SHT30;58451;51.550;7.208;2022-09-12T22:02:49;18.35;61.48
70830;SHT30;58451;51.550;7.208;2022-09-12T22:05:15;18.35;61.53
70830;SHT30;58451;51.550;7.208;2022-09-12T22:07:46;18.35;61.46
70830;SHT30;58451;51.550;7.208;2022-09-12T22:10:13;18.33;61.39
70830;SHT30;58451;51.550;7.208;2022-09-12T22:12:40;18.29;61.38
70830;SHT30;58451;51.550;7.208;2022-09-12T22:15:12;18.23;61.44
70830;SHT30;58451;51.550;7.208;2022-09-12T22:17:59;18.19;61.57
70830;SHT30;58451;51.550;7.208;2022-09-12T22:20:26;18.14;61.62
70830;SHT30;58451;51.550;7.208;2022-09-12T22:22:53;18.10;61.71
70830;SHT30;58451;51.550;7.208;2022-09-12T22:25:38;18.05;62.03
70830;SHT30;58451;51.550;7.208;2022-09-12T22:28:05;17.99;62.08
70830;SHT30;58451;51.550;7.208;2022-09-12T22:30:32;17.96;62.03
70830;SHT30;58451;51.550;7.208;2022-09-12T22:32:59;17.93;62.10
70830;SHT30;58451;51.550;7.208;2022-09-12T22:35:26;17.90;62.19
70830;SHT30;58451;51.550;7.208;2022-09-12T22:37:52;17.85;62.33
70830;SHT30;58451;51.550;7.208;2022-09-12T22:40:19;17.80;62.58
70830;SHT30;58451;51.550;7.208;2022-09-12T22:42:46;17.73;62.73
70830;SHT30;58451;51.550;7.208;2022-09-12T22:45:13;17.67;62.83
70830;SHT30;58451;51.550;7.208;2022-09-12T22:47:39;17.62;63.04
70830;SHT30;58451;51.550;7.208;2022-09-12T22:50:06;17.55;63.19
70830;SHT30;58451;51.550;7.208;2022-09-12T22:52:33;17.50;63.47
70830;SHT30;58451;51.550;7.208;2022-09-12T22:55:00;17.45;63.60
70830;SHT30;58451;51.550;7.208;2022-09-12T22:57:27;17.39;63.79
70830;SHT30;58451;51.550;7.208;2022-09-12T22:59:54;17.35;63.88
70830;SHT30;58451;51.550;7.208;2022-09-12T23:02:20;17.32;64.14
70830;SHT30;58451;51.550;7.208;2022-09-12T23:04:48;17.30;64.25
70830;SHT30;58451;51.550;7.208;2022-09-12T23:07:14;17.28;64.46
70830;SHT30;58451;51.550;7.208;2022-09-12T23:09:41;17.27;64.59
70830;SHT30;58451;51.550;7.208;2022-09-12T23:12:09;17.26;64.71
70830;SHT30;58451;51.550;7.208;2022-09-12T23:14:36;17.25;64.76
70830;SHT30;58451;51.550;7.208;2022-09-12T23:17:02;17.25;64.86
70830;SHT30;58451;51.550;7.208;2022-09-12T23:19:29;17.27;64.90
70830;SHT30;58451;51.550;7.208;2022-09-12T23:21:56;17.29;65.11
70830;SHT30;58451;51.550;7.208;2022-09-12T23:24:22;17.31;65.05
70830;SHT30;58451;51.550;7.208;2022-09-12T23:26:49;17.35;65.14
70830;SHT30;58451;51.550;7.208;2022-09-12T23:29:16;17.38;65.20
70830;SHT30;58451;51.550;7.208;2022-09-12T23:31:43;17.40;65.22
70830;SHT30;58451;51.550;7.208;2022-09-12T23:34:10;17.41;65.21
70830;SHT30;58451;51.550;7.208;2022-09-12T23:36:36;17.40;65.24
70830;SHT30;58451;51.550;7.208;2022-09-12T23:39:03;17.40;65.26
70830;SHT30;58451;51.550;7.208;2022-09-12T23:41:31;17.40;65.26
70830;SHT30;58451;51.550;7.208;2022-09-12T23:43:58;17.40;65.33
70830;SHT30;58451;51.550;7.208;2022-09-12T23:46:24;17.41;65.43
70830;SHT30;58451;51.550;7.208;2022-09-12T23:48:52;17.41;65.49
70830;SHT30;58451;51.550;7.208;2022-09-12T23:51:18;17.41;65.79
70830;SHT30;58451;51.550;7.208;2022-09-12T23:53:47;17.41;65.77
70830;SHT30;58451;51.550;7.208;2022-09-12T23:56:14;17.41;65.72
70830;SHT30;58451;51.550;7.208;2022-09-12T23:58:41;17.40;66.06
